Weather at St-Mathias Airport

Public forecast

Using degrees Celsius for public forecast. Weather courtesy of forecast.io.

Closest aviation weather report (METAR) to St-Mathias Airport

Closest report is MontrĂ©al / Saint-Hubert Airport, 7.4 nm (13.8 km) W. Retrieved 2020/09/27 03:00 UTC (15 minutes ago):

CYHU 270300Z AUTO 19004KT 9SM FEW070 OVC180 19/12 A2990 RMK SLP127 DENSITY ALT 600FT

Closest aviation forecast (TAF) to St-Mathias Airport

Closest forecast is MontrĂ©al / Saint-Hubert Airport, 7.4 nm (13.8 km) W. Retrieved 2020-09-27 00:42 UTC (3 hours ago):

TAF CYHU 262338Z 2700/2724 17010KT P6SM BKN180 FM271500 18012G22KT P6SM FEW040 SCT220 BECMG 2722/2724 18010KT RMK FCST BASED ON AUTO OBS NXT FCST BY 270600Z